Airfield :
LOGIN :

Register | Disclaimer

   EN    FR    IT 

 










Legend :    VFR   Marginal VFR   IFR   Intensive IFR   Very Intensive IFR
Visi :
Ceiling :
>= 8 km
>= 3000ft
5 to 8 km
1000 to 3000 ft
1500m to 5 km
500 to 1000 ft
800 to 1500m
200 to 500 ft
< 800m
< 200 ft
Symbols :   Thunderstorms  Fog  Heavy snow  Heavy precipitations  Wind > 20 kt
SIGMETs :     Misc.  Thunderstorms  Icing  Turbulence  Mountain Waves  Volcanic Ashes






- Airport Elevation : 14 ft
- IATA code : BRE


EDDW - Bremen Neuenland

CURRENT METAR :
  • 290620Z 02019G30KT 350V050 9999 BKN019 03/M01 Q1025 BECMG BKN013

EXPIRED METARs :
  • 290550Z 36016G26KT 9999 BKN019 03/M01 Q1024 BECMG BKN013
  • 290520Z 36017G28KT 330V030 9999 SCT018 BKN027 03/M01 Q1024 BECMG BKN013
  • 290450Z 01016KT 340V040 9999 BKN028 04/M02 Q1024 BECMG 01015G25KT BKN013
  • 290420Z 36016KT 9999 FEW028 04/M02 Q1024 BECMG 01015G25KT BKN013
  • 290350Z 35012KT 310V030 9999 FEW022 04/M02 Q1024 BECMG 01015G25KT BKN013

TAF TAF EDDW
Valid from the 29 at 06:00 until the 30 at 06:00 UTC


290500Z 2906/3006 02015G25KT 9999 BKN025
TEMPO 2906/2910 BKN013
PROB40
TEMPO 2906/2910 3500 -RASN BKN007
TEMPO 2906/2916 02020G35KT
BECMG 2916/2918 02010KT
BECMG 2919/2921 36005KT
BECMG 2922/2924 28003KT
PROB30
TEMPO 3004/3006 3500 -RASN SCT005 BKN014



MET'MAP, your aeronautical weather chart ! - Copyright ORBIFLY December 2007 - Disclaimer

ORBIFLY MET'MAP TEAM :

Programming & Development : Alexandra Zaïnal
Concept & original design : Baudouin d'Aumeries
Assistance for programming : Marc-Olivier Méhu
Technical & hardware support : Manuel Goepfert

Contact : metmap@orbifly.com




SOURCES & CREDITS :

   NOAA